createdAt,value
2019-01-03T00:00:52.261Z,80.34
2019-01-03T00:01:52.203Z,80.3
2019-01-03T00:02:52.361Z,80.34
2019-01-03T00:03:52.260Z,80.32
2019-01-03T00:04:52.479Z,80.35
2019-01-03T00:05:52.350Z,80.61
2019-01-03T00:06:52.288Z,80.54
2019-01-03T00:07:52.363Z,80.65
2019-01-03T00:08:53.419Z,80.56
2019-01-03T00:09:52.560Z,80.78
2019-01-03T00:10:52.322Z,80.81
2019-01-03T00:11:52.755Z,80.8
2019-01-03T00:12:52.385Z,81.2
2019-01-03T00:13:52.700Z,81.18
2019-01-03T00:14:52.275Z,80.98
2019-01-03T00:15:52.434Z,81.31
2019-01-03T00:16:52.365Z,81.44
2019-01-03T00:17:52.347Z,81.51
2019-01-03T00:18:52.486Z,81.69
2019-01-03T00:19:52.200Z,82.03
2019-01-03T00:20:52.284Z,82.02
2019-01-03T00:21:52.337Z,81.7
2019-01-03T00:22:52.483Z,81.62
2019-01-03T00:23:52.377Z,81.64
2019-01-03T00:24:52.260Z,81.59
2019-01-03T00:25:53.017Z,81.54
2019-01-03T00:26:53.759Z,81.44
2019-01-03T00:27:52.183Z,81.64
2019-01-03T00:28:52.195Z,81.67
2019-01-03T00:29:52.206Z,81.95
2019-01-03T00:30:52.357Z,81.8
2019-01-03T00:31:52.302Z,81.77
2019-01-03T00:32:52.231Z,81.75
2019-01-03T00:33:52.293Z,81.7
2019-01-03T00:34:52.259Z,81.77
2019-01-03T00:35:52.394Z,81.57
2019-01-03T00:36:52.171Z,81.67
2019-01-03T00:37:52.284Z,81.7
2019-01-03T00:38:52.334Z,81.64
2019-01-03T00:39:52.145Z,81.51
2019-01-03T00:40:52.535Z,81.54
2019-01-03T00:41:52.241Z,81.68
2019-01-03T00:42:52.205Z,81.55
2019-01-03T00:43:52.199Z,81.27
2019-01-03T00:44:52.244Z,81.44
2019-01-03T00:45:52.401Z,81.37
2019-01-03T00:46:52.346Z,81.23
2019-01-03T00:47:52.322Z,81.31
2019-01-03T00:49:52.136Z,81.29
2019-01-03T00:50:52.341Z,81.29
2019-01-03T00:51:52.338Z,81.07
2019-01-03T00:52:52.333Z,81.09
2019-01-03T00:53:52.384Z,81.15
2019-01-03T00:54:52.321Z,81.15
2019-01-03T00:55:52.147Z,81.17
2019-01-03T00:56:52.235Z,81.23
2019-01-03T00:57:52.323Z,81.21
2019-01-03T00:58:52.119Z,81.29
2019-01-03T00:59:52.468Z,81.14
2019-01-03T01:00:52.211Z,81.2
2019-01-03T01:01:52.490Z,81.44
2019-01-03T01:02:52.274Z,81.24
2019-01-03T01:03:52.593Z,81.22
2019-01-03T01:04:52.319Z,81.15
2019-01-03T01:05:52.127Z,81.18
2019-01-03T01:06:52.203Z,81.29
2019-01-03T01:07:52.253Z,81.19
2019-01-03T01:08:52.392Z,81.19
2019-01-03T01:09:52.158Z,81.23
2019-01-03T01:10:52.440Z,81.21
2019-01-03T01:11:52.523Z,81.02
2019-01-03T01:12:52.379Z,81.05
2019-01-03T01:13:52.097Z,81.01
2019-01-03T01:14:52.159Z,81.07
2019-01-03T01:15:52.364Z,81.22
2019-01-03T01:16:52.251Z,80.85
2019-01-03T01:17:52.143Z,81.01
2019-01-03T01:18:52.138Z,81.22
2019-01-03T01:19:52.201Z,81.13
2019-01-03T01:20:52.104Z,81.02
2019-01-03T01:21:52.266Z,81.1
2019-01-03T01:22:52.116Z,81.13
2019-01-03T01:23:52.404Z,81.25
2019-01-03T01:24:52.141Z,81.05
2019-01-03T01:25:52.351Z,81
2019-01-03T01:26:52.105Z,81.07
2019-01-03T01:27:52.146Z,81.03
2019-01-03T01:28:52.175Z,80.95
2019-01-03T01:29:52.129Z,80.73
2019-01-03T01:30:52.190Z,80.73
2019-01-03T01:31:52.172Z,80.79
2019-01-03T01:32:52.187Z,80.77
2019-01-03T01:33:52.084Z,80.57
2019-01-03T01:34:52.119Z,80.5
2019-01-03T01:35:52.061Z,80.36
2019-01-03T01:36:52.060Z,80.26
2019-01-03T01:37:52.108Z,80.36
2019-01-03T01:38:52.107Z,80.29
2019-01-03T01:39:52.542Z,80.3
2019-01-03T01:40:52.072Z,80.45
2019-01-03T01:41:52.167Z,80.43
2019-01-03T01:42:52.074Z,80.77
2019-01-03T01:43:52.334Z,80.66
2019-01-03T01:44:52.086Z,80.72
2019-01-03T01:45:52.092Z,80.65
2019-01-03T01:46:52.342Z,80.66
2019-01-03T01:47:52.528Z,80.59
2019-01-03T01:48:52.500Z,80.58
2019-01-03T01:49:52.166Z,80.94
2019-01-03T01:50:52.181Z,80.48
2019-01-03T01:51:52.137Z,80.72
2019-01-03T01:52:52.895Z,80.65
2019-01-03T01:53:53.169Z,80.81
2019-01-03T01:54:52.084Z,80.6
2019-01-03T01:55:52.891Z,80.51
2019-01-03T01:56:52.098Z,80.75
2019-01-03T01:57:52.228Z,80.79
2019-01-03T01:58:52.253Z,80.67
2019-01-03T01:59:52.327Z,80.7
2019-01-03T02:00:52.203Z,80.42
2019-01-03T02:01:52.523Z,80.71
2019-01-03T02:02:52.112Z,80.95
2019-01-03T02:03:52.165Z,80.84
2019-01-03T02:04:52.084Z,80.93
2019-01-03T02:05:52.117Z,81.04
2019-01-03T02:06:52.430Z,80.89
2019-01-03T02:07:52.251Z,81.08
2019-01-03T02:08:51.834Z,81.26
2019-01-03T02:09:52.841Z,80.88
2019-01-03T02:10:52.139Z,80.83
2019-01-03T02:11:52.269Z,80.74
2019-01-03T02:12:52.450Z,80.84
2019-01-03T02:13:52.355Z,80.76
2019-01-03T02:14:52.047Z,80.84
2019-01-03T02:15:52.008Z,80.78
2019-01-03T02:16:52.249Z,80.65
2019-01-03T02:17:52.233Z,80.46
2019-01-03T02:18:52.186Z,80.33
2019-01-03T02:19:52.187Z,80.31
2019-01-03T02:20:52.227Z,80.26
2019-01-03T02:21:52.381Z,80.35
2019-01-03T02:22:52.136Z,80.39
2019-01-03T02:23:52.890Z,80.35
2019-01-03T02:24:52.610Z,80.16
2019-01-03T02:25:52.172Z,80.87
2019-01-03T02:26:52.285Z,80.94
2019-01-03T02:27:52.343Z,80.85
2019-01-03T02:28:52.190Z,81.03
2019-01-03T02:29:52.153Z,81.2
2019-01-03T02:30:52.840Z,81.3
2019-01-03T02:31:52.249Z,81.21
2019-01-03T02:32:52.021Z,81.12
2019-01-03T02:33:52.417Z,81.1
2019-01-03T02:34:52.247Z,81.03
2019-01-03T02:35:51.968Z,81.23
2019-01-03T02:36:52.687Z,81.14
2019-01-03T02:37:51.990Z,81.01
2019-01-03T02:38:52.841Z,80.95
2019-01-03T02:39:52.407Z,80.93
2019-01-03T02:40:52.143Z,80.63
2019-01-03T02:41:52.195Z,80.48
2019-01-03T02:42:52.619Z,80.46
2019-01-03T02:43:52.109Z,80.36
2019-01-03T02:44:52.055Z,80.28
2019-01-03T02:45:52.223Z,80.18
2019-01-03T02:46:52.382Z,80.26
2019-01-03T02:47:52.378Z,80.13
2019-01-03T02:48:52.142Z,80.02
2019-01-03T02:49:52.142Z,79.9
2019-01-03T02:50:52.179Z,79.98
2019-01-03T02:51:52.114Z,79.86
2019-01-03T02:52:52.403Z,79.96
2019-01-03T02:53:52.489Z,80.05
2019-01-03T02:54:52.260Z,80.03
2019-01-03T02:55:51.990Z,80.24
2019-01-03T02:56:52.075Z,80.71
2019-01-03T02:57:52.000Z,80.57
2019-01-03T02:58:52.425Z,80.21
2019-01-03T02:59:52.007Z,80.15
2019-01-03T03:00:52.281Z,80.19
2019-01-03T03:01:52.154Z,80.23
2019-01-03T03:02:52.343Z,80.2
2019-01-03T03:03:52.094Z,80.54
2019-01-03T03:04:52.564Z,81.02
2019-01-03T03:05:52.244Z,81.42
2019-01-03T03:06:52.582Z,81.34
2019-01-03T03:07:52.306Z,81.3
2019-01-03T03:08:52.133Z,80.84
2019-01-03T03:09:52.288Z,80.81
2019-01-03T03:10:52.460Z,81.35
2019-01-03T03:11:52.016Z,81.17
2019-01-03T03:12:51.992Z,81.07
2019-01-03T03:13:52.059Z,81.2
2019-01-03T03:14:51.963Z,81.29
2019-01-03T03:15:51.991Z,81.2
2019-01-03T03:16:52.276Z,81.2
2019-01-03T03:17:52.180Z,81.55
2019-01-03T03:18:51.975Z,81.33
2019-01-03T03:19:51.953Z,81.13
2019-01-03T03:20:52.155Z,81.37
2019-01-03T03:21:52.169Z,80.99
2019-01-03T03:22:51.945Z,80.93
2019-01-03T03:23:52.687Z,80.94
2019-01-03T03:24:53.491Z,80.79
2019-01-03T03:25:51.995Z,80.77
2019-01-03T03:26:52.206Z,80.72
2019-01-03T03:27:52.084Z,80.53
2019-01-03T03:28:52.285Z,80.67
2019-01-03T03:29:51.898Z,80.67
2019-01-03T03:30:52.132Z,80.86
2019-01-03T03:31:51.923Z,80.96
2019-01-03T03:32:52.232Z,81.27
2019-01-03T03:33:52.412Z,81.44
2019-01-03T03:34:52.123Z,81.29
2019-01-03T03:35:52.252Z,81.7
2019-01-03T03:36:52.036Z,81.63
2019-01-03T03:37:51.966Z,81.93
2019-01-03T03:38:52.266Z,82.36
2019-01-03T03:39:52.197Z,82.66
2019-01-03T03:40:51.701Z,82.56
2019-01-03T03:41:51.898Z,82.68
2019-01-03T03:42:52.044Z,82.34
2019-01-03T03:43:52.261Z,82.1
2019-01-03T03:44:51.908Z,82.7
2019-01-03T03:45:52.664Z,82.9
2019-01-03T03:46:52.377Z,83.15
2019-01-03T03:47:52.727Z,83.05
2019-01-03T03:48:51.927Z,82.93
2019-01-03T03:49:52.032Z,82.68
2019-01-03T03:50:52.147Z,82.75
2019-01-03T03:51:52.113Z,82.82
2019-01-03T03:52:52.137Z,82.9
2019-01-03T03:53:52.052Z,82.51
2019-01-03T03:54:52.243Z,82.37
2019-01-03T03:55:51.898Z,82.32
2019-01-03T03:56:52.005Z,82.34
2019-01-03T03:57:52.322Z,82.44
2019-01-03T03:58:51.960Z,82.79
2019-01-03T03:59:52.138Z,83
2019-01-03T04:00:52.252Z,83.17
2019-01-03T04:01:52.063Z,82.79
2019-01-03T04:02:51.936Z,83.91
2019-01-03T04:03:52.039Z,83.3
2019-01-03T04:04:52.062Z,83.51
2019-01-03T04:05:52.180Z,84.39
2019-01-03T04:06:52.229Z,83.81
2019-01-03T04:07:52.130Z,83.29
2019-01-03T04:08:52.095Z,83.57
2019-01-03T04:09:51.994Z,83.31
2019-01-03T04:10:52.377Z,83.07
2019-01-03T04:11:52.124Z,82.81
2019-01-03T04:12:52.185Z,83.19
2019-01-03T04:13:52.203Z,83.4
2019-01-03T04:14:52.705Z,83.17
2019-01-03T04:15:52.049Z,83.5
2019-01-03T04:16:52.047Z,83.23
2019-01-03T04:17:52.189Z,83.61
2019-01-03T04:18:52.007Z,83.75
2019-01-03T04:19:51.978Z,83.25
2019-01-03T04:20:52.024Z,82.89
2019-01-03T04:21:51.927Z,82.79
2019-01-03T04:22:52.092Z,83.03
2019-01-03T04:23:51.909Z,83.11
2019-01-03T04:24:52.594Z,82.95
2019-01-03T04:25:51.963Z,83.16
2019-01-03T04:26:52.077Z,82.92
2019-01-03T04:27:52.655Z,82.41
2019-01-03T04:28:52.073Z,82.32
2019-01-03T04:29:51.969Z,82.43
2019-01-03T04:30:52.080Z,82.92
2019-01-03T04:31:51.936Z,83.69
2019-01-03T04:32:52.046Z,83.4
2019-01-03T04:33:52.136Z,83.3
2019-01-03T04:34:52.177Z,82.92
2019-01-03T04:35:52.226Z,83.49
2019-01-03T04:36:51.921Z,83.16
2019-01-03T04:37:52.077Z,83.13
2019-01-03T04:38:52.649Z,83.18
2019-01-03T04:39:51.975Z,83.13
2019-01-03T04:40:52.240Z,83.31
2019-01-03T04:41:51.920Z,82.94
2019-01-03T04:42:52.484Z,82.64
2019-01-03T04:43:52.077Z,82.52
2019-01-03T04:44:52.183Z,82.69
2019-01-03T04:45:51.984Z,82.76
2019-01-03T04:46:51.807Z,82.6
2019-01-03T04:47:51.988Z,82.42
2019-01-03T04:48:51.924Z,82.93
2019-01-03T04:49:51.956Z,82.98
2019-01-03T04:50:51.957Z,83.02
2019-01-03T04:51:51.898Z,82.61
2019-01-03T04:52:51.884Z,82.43
2019-01-03T04:53:51.894Z,82.69
2019-01-03T04:54:51.928Z,82.71
2019-01-03T04:55:51.883Z,82.65
2019-01-03T04:56:52.033Z,82.98
2019-01-03T04:57:52.052Z,83.33
2019-01-03T04:58:52.017Z,83.4
2019-01-03T04:59:52.038Z,83.35
2019-01-03T05:00:52.005Z,83.34
2019-01-03T05:01:51.925Z,83.13
2019-01-03T05:02:51.897Z,83.08
2019-01-03T05:03:51.896Z,82.79
2019-01-03T05:04:51.878Z,82.63
2019-01-03T05:05:51.882Z,82.49
2019-01-03T05:06:51.805Z,82.65
2019-01-03T05:07:51.928Z,82.46
2019-01-03T05:08:51.962Z,83.37
2019-01-03T05:09:51.943Z,83.51
2019-01-03T05:10:52.090Z,83.58
2019-01-03T05:11:51.907Z,83
2019-01-03T05:12:51.796Z,83.08
2019-01-03T05:13:51.741Z,82.9
2019-01-03T05:14:51.968Z,82.84
2019-01-03T05:15:52.055Z,83
2019-01-03T05:16:52.235Z,82.85
2019-01-03T05:17:51.891Z,83.87
2019-01-03T05:18:51.768Z,84.01
2019-01-03T05:19:52.053Z,83.91
2019-01-03T05:20:51.768Z,84.01
2019-01-03T05:21:51.966Z,83.54
2019-01-03T05:22:52.099Z,83.36
2019-01-03T05:23:56.981Z,83.63
2019-01-03T05:24:52.172Z,83.49
2019-01-03T05:25:51.886Z,83.62
2019-01-03T05:26:51.750Z,83.79
2019-01-03T05:27:52.201Z,83.24
2019-01-03T05:28:52.521Z,83.27
2019-01-03T05:29:52.044Z,83.33
2019-01-03T05:30:51.891Z,83.42
2019-01-03T05:31:52.050Z,83.22
2019-01-03T05:32:52.096Z,82.96
2019-01-03T05:33:51.738Z,82.9
2019-01-03T05:34:51.733Z,82.8
2019-01-03T05:35:52.115Z,83.22
2019-01-03T05:36:51.965Z,83.53
2019-01-03T05:37:52.003Z,83.42
2019-01-03T05:38:51.971Z,83.56
2019-01-03T05:39:51.717Z,83.11
2019-01-03T05:40:51.713Z,82.87
2019-01-03T05:41:52.057Z,82.99
2019-01-03T05:42:52.211Z,82.68
2019-01-03T05:43:51.757Z,82.89
2019-01-03T05:44:52.014Z,83.35
2019-01-03T05:45:51.953Z,83.64
2019-01-03T05:46:52.204Z,83.48
2019-01-03T05:47:51.866Z,83.35
2019-01-03T05:48:51.947Z,83.22
2019-01-03T05:49:51.901Z,83
2019-01-03T05:50:51.548Z,83.15
2019-01-03T05:51:52.454Z,83.15
2019-01-03T05:52:51.720Z,83.11
2019-01-03T05:53:51.886Z,82.98
2019-01-03T05:54:51.987Z,82.79
2019-01-03T05:55:51.957Z,83.43
2019-01-03T05:56:51.729Z,83.93
2019-01-03T05:57:51.959Z,83.86
2019-01-03T05:58:52.582Z,83.99
2019-01-03T05:59:51.901Z,83.84
2019-01-03T06:00:51.727Z,83.82
2019-01-03T06:01:52.545Z,83.69
2019-01-03T06:02:51.758Z,83.61
2019-01-03T06:03:52.073Z,83.51
2019-01-03T06:04:52.054Z,83.21
2019-01-03T06:05:51.679Z,83.57
2019-01-03T06:06:52.260Z,83.66
2019-01-03T06:07:52.044Z,83.34
2019-01-03T06:08:51.867Z,83.26
2019-01-03T06:09:51.693Z,83.28
2019-01-03T06:10:51.785Z,83.48
2019-01-03T06:11:51.873Z,84
2019-01-03T06:12:52.267Z,83.68
2019-01-03T06:13:51.945Z,83.75
2019-01-03T06:14:52.338Z,83.53
2019-01-03T06:15:52.370Z,83.52
2019-01-03T06:16:52.048Z,82.98
2019-01-03T06:17:51.769Z,83.09
2019-01-03T06:18:51.754Z,82.97
2019-01-03T06:19:51.901Z,82.7
2019-01-03T06:20:51.919Z,82.85
2019-01-03T06:21:51.918Z,83.54
2019-01-03T06:22:52.248Z,83.6
2019-01-03T06:23:51.966Z,83.9
2019-01-03T06:24:51.926Z,83.95
2019-01-03T06:25:51.676Z,83.7
2019-01-03T06:26:51.809Z,83.42
2019-01-03T06:27:51.912Z,83.37
2019-01-03T06:28:51.974Z,83.51
2019-01-03T06:29:51.648Z,83.51
2019-01-03T06:30:52.126Z,83.76
2019-01-03T06:31:51.786Z,83.84
2019-01-03T06:32:52.176Z,84.05
2019-01-03T06:33:51.771Z,84.19
2019-01-03T06:34:51.716Z,84.01
2019-01-03T06:35:51.927Z,84.17
2019-01-03T06:36:51.754Z,84.15
2019-01-03T06:37:51.630Z,83.76
2019-01-03T06:38:51.633Z,83.54
2019-01-03T06:39:51.618Z,83.49
2019-01-03T06:40:51.653Z,83.76
2019-01-03T06:41:51.635Z,83.36
2019-01-03T06:42:52.028Z,83.62
2019-01-03T06:43:51.658Z,83.43
2019-01-03T06:44:51.694Z,83.28
2019-01-03T06:45:51.651Z,83.37
2019-01-03T06:46:51.645Z,83.72
2019-01-03T06:47:52.093Z,83.5
2019-01-03T06:48:51.870Z,83.39
2019-01-03T06:49:51.627Z,83.37
2019-01-03T06:50:51.903Z,83.41
2019-01-03T06:51:51.907Z,83.47
2019-01-03T06:52:51.653Z,83.79
2019-01-03T06:53:51.766Z,83.97
2019-01-03T06:54:51.901Z,83.94
2019-01-03T06:55:52.290Z,84.38
2019-01-03T06:56:51.780Z,84.21
2019-01-03T06:57:52.022Z,84.37
2019-01-03T06:58:51.753Z,84.64
2019-01-03T06:59:51.609Z,84.64
2019-01-03T07:00:51.983Z,84.7
2019-01-03T07:01:51.771Z,84.58
2019-01-03T07:02:51.875Z,83.93
2019-01-03T07:03:52.119Z,84.21
2019-01-03T07:04:51.700Z,84.26
2019-01-03T07:05:51.845Z,84.18
2019-01-03T07:06:51.973Z,84.65
2019-01-03T07:07:51.855Z,84.79
2019-01-03T07:08:51.632Z,84.43
2019-01-03T07:09:51.584Z,83.87
2019-01-03T07:10:52.038Z,84.08
2019-01-03T07:11:51.733Z,84.43
2019-01-03T07:12:51.862Z,84.29
2019-01-03T07:13:52.016Z,84.59
2019-01-03T07:14:51.622Z,84.1
2019-01-03T07:15:52.446Z,83.98
2019-01-03T07:16:51.964Z,84.02
2019-01-03T07:17:51.675Z,84.02
2019-01-03T07:18:51.598Z,84.58
2019-01-03T07:19:51.956Z,84.77
2019-01-03T07:20:51.853Z,85.37
2019-01-03T07:21:52.005Z,85.3
2019-01-03T07:22:51.699Z,85.26
2019-01-03T07:23:51.610Z,85.47
2019-01-03T07:24:51.845Z,85.16
2019-01-03T07:25:53.372Z,85.22
2019-01-03T07:26:51.976Z,84.75
2019-01-03T07:27:51.969Z,84.87
2019-01-03T07:28:55.738Z,84.76
2019-01-03T07:29:51.960Z,84.51
2019-01-03T07:30:52.400Z,84.56
2019-01-03T07:31:51.606Z,84.61
2019-01-03T07:32:51.665Z,84.6
2019-01-03T07:33:51.913Z,84.69
2019-01-03T07:34:51.963Z,84.52
2019-01-03T07:35:51.922Z,84.53
2019-01-03T07:36:51.904Z,84.3
2019-01-03T07:37:51.551Z,84.5
2019-01-03T07:38:52.902Z,84.84
2019-01-03T07:39:51.691Z,84.89
2019-01-03T07:40:51.797Z,84.71
2019-01-03T07:41:51.759Z,85.15
2019-01-03T07:42:51.903Z,85.04
2019-01-03T07:43:51.919Z,85.01
2019-01-03T07:44:51.679Z,84.83
2019-01-03T07:45:51.559Z,84.92
2019-01-03T07:46:51.850Z,84.72
2019-01-03T07:47:51.927Z,84.63
2019-01-03T07:48:51.924Z,84.45
2019-01-03T07:49:51.539Z,84.43
2019-01-03T07:50:51.549Z,84.75
2019-01-03T07:51:51.728Z,85.16
2019-01-03T07:52:52.066Z,84.92
2019-01-03T07:53:51.613Z,84.66
2019-01-03T07:54:52.409Z,84.39
2019-01-03T07:55:52.158Z,84.53
2019-01-03T07:56:51.531Z,84.86
2019-01-03T07:57:51.539Z,84.82
2019-01-03T07:58:51.906Z,84.73
2019-01-03T07:59:51.681Z,84.79
2019-01-03T08:00:51.736Z,84.31
2019-01-03T08:01:51.511Z,84.49
2019-01-03T08:02:51.866Z,84.99
2019-01-03T08:03:51.986Z,84.99
2019-01-03T08:04:51.758Z,85.04
2019-01-03T08:05:51.543Z,85.1
2019-01-03T08:06:52.415Z,85.19
2019-01-03T08:07:51.577Z,85.08
2019-01-03T08:08:52.153Z,85.31
2019-01-03T08:09:51.741Z,85.9
2019-01-03T08:10:51.606Z,85.53
2019-01-03T08:11:51.722Z,85.62
2019-01-03T08:12:51.482Z,85.67
2019-01-03T08:13:51.653Z,85.33
2019-01-03T08:14:51.681Z,85.35
2019-01-03T08:15:52.593Z,85.48
2019-01-03T08:16:51.751Z,85.41
2019-01-03T08:17:51.587Z,85.33
2019-01-03T08:18:51.878Z,84.94
2019-01-03T08:19:51.746Z,84.91
2019-01-03T08:20:51.493Z,86.13
2019-01-03T08:21:51.529Z,86.7
2019-01-03T08:22:51.890Z,86.79
2019-01-03T08:23:52.005Z,86.45
2019-01-03T08:24:51.918Z,86.6
2019-01-03T08:25:51.972Z,86.34
2019-01-03T08:26:51.916Z,85.82
2019-01-03T08:27:51.573Z,86.34
2019-01-03T08:28:51.547Z,85.94
2019-01-03T08:29:51.522Z,85.98
2019-01-03T08:30:51.534Z,86.09
2019-01-03T08:31:51.654Z,86.06
2019-01-03T08:32:51.466Z,85.76
2019-01-03T08:33:51.534Z,86.26
2019-01-03T08:34:51.493Z,86.6
2019-01-03T08:35:51.621Z,86.39
2019-01-03T08:36:51.625Z,86.41
2019-01-03T08:37:51.708Z,86.12
2019-01-03T08:38:52.308Z,86.01
2019-01-03T08:39:51.779Z,86.11
2019-01-03T08:40:51.714Z,86
2019-01-03T08:41:51.863Z,86.08
2019-01-03T08:42:51.503Z,86.89
2019-01-03T08:43:51.826Z,86.58
2019-01-03T08:44:51.886Z,86.38
2019-01-03T08:45:51.968Z,85.94
2019-01-03T08:46:51.543Z,86.67
2019-01-03T08:47:51.376Z,86.07
2019-01-03T08:48:51.599Z,86.9
2019-01-03T08:49:51.476Z,86.74
2019-01-03T08:50:51.588Z,87.56
2019-01-03T08:51:51.470Z,87.31
2019-01-03T08:52:51.838Z,87.14
2019-01-03T08:53:51.504Z,87.02
2019-01-03T08:54:51.985Z,86.86
2019-01-03T08:55:51.569Z,86.82
2019-01-03T08:56:51.814Z,86.73
2019-01-03T08:57:51.473Z,86.58
2019-01-03T08:58:51.644Z,86.5
2019-01-03T08:59:51.549Z,86.68
2019-01-03T09:00:51.857Z,86.36
2019-01-03T09:01:51.440Z,86.42
2019-01-03T09:02:51.681Z,86.57
2019-01-03T09:03:51.636Z,87.69
2019-01-03T09:04:52.488Z,87.38
2019-01-03T09:05:51.485Z,87.13
2019-01-03T09:06:51.399Z,87.14
2019-01-03T09:07:51.435Z,87.7
2019-01-03T09:08:51.447Z,87
2019-01-03T09:09:51.453Z,87.78
2019-01-03T09:10:51.861Z,86.96
2019-01-03T09:11:51.512Z,87.14
2019-01-03T09:12:51.493Z,86.98
2019-01-03T09:13:51.921Z,86.82
2019-01-03T09:14:51.934Z,87.05
2019-01-03T09:15:51.699Z,86.89
2019-01-03T09:16:51.447Z,87.1
2019-01-03T09:17:51.702Z,87.1
2019-01-03T09:18:51.421Z,87.03
2019-01-03T09:19:51.595Z,87.26
2019-01-03T09:20:52.065Z,86.8
2019-01-03T09:21:51.759Z,86.9
2019-01-03T09:22:51.584Z,87.21
2019-01-03T09:23:51.687Z,86.68
2019-01-03T09:24:52.107Z,87.02
2019-01-03T09:25:51.495Z,87.02
2019-01-03T09:26:51.561Z,87.63
2019-01-03T09:27:51.622Z,87.47
2019-01-03T09:28:52.296Z,87.14
2019-01-03T09:29:51.620Z,87.27
2019-01-03T09:30:51.470Z,87.41
2019-01-03T09:31:51.574Z,87.07
2019-01-03T09:32:51.432Z,87.38
2019-01-03T09:33:51.427Z,87.45
2019-01-03T09:34:51.487Z,87.36
2019-01-03T09:35:51.414Z,87.26
2019-01-03T09:36:51.529Z,87.28
2019-01-03T09:37:51.537Z,88
2019-01-03T09:38:51.462Z,87.41
2019-01-03T09:39:51.860Z,87.62
2019-01-03T09:40:51.795Z,88.57
2019-01-03T09:41:51.891Z,88.51
2019-01-03T09:42:55.475Z,87.94
2019-01-03T09:43:51.444Z,87.69
2019-01-03T09:44:51.913Z,87.77
2019-01-03T09:45:51.591Z,87.86
2019-01-03T09:46:51.633Z,87.56
2019-01-03T09:47:52.780Z,87.45
2019-01-03T09:48:51.541Z,87.29
2019-01-03T09:49:51.879Z,87.02
2019-01-03T09:50:51.643Z,86.91
2019-01-03T09:51:51.418Z,87.02
2019-01-03T09:52:51.629Z,87.15
2019-01-03T09:53:51.397Z,86.86
2019-01-03T09:54:51.603Z,87.18
2019-01-03T09:55:51.901Z,87.19
2019-01-03T09:56:51.927Z,87.27
2019-01-03T09:57:51.590Z,87.04
2019-01-03T09:58:51.891Z,87.39
2019-01-03T09:59:51.382Z,87.88
2019-01-03T10:00:51.913Z,87.84
2019-01-03T10:01:51.549Z,87.86
2019-01-03T10:02:51.373Z,87.58
2019-01-03T10:03:51.551Z,87.32
2019-01-03T10:04:51.433Z,87.35
2019-01-03T10:05:51.413Z,88.09
2019-01-03T10:06:51.433Z,87.52
2019-01-03T10:07:51.851Z,87.77
2019-01-03T10:08:52.608Z,87.53
2019-01-03T10:09:51.453Z,87.48
2019-01-03T10:10:51.337Z,87.54
2019-01-03T10:11:51.388Z,87.63
2019-01-03T10:12:51.392Z,87.67
2019-01-03T10:13:51.334Z,87.43
2019-01-03T10:14:51.409Z,87.68
2019-01-03T10:15:51.386Z,87.76
2019-01-03T10:16:51.597Z,87.55
2019-01-03T10:17:51.340Z,87.5
2019-01-03T10:18:51.922Z,87.37
2019-01-03T10:19:51.337Z,88.59
2019-01-03T10:20:51.444Z,88.8
2019-01-03T10:21:51.502Z,88.83
2019-01-03T10:22:51.351Z,88.86
2019-01-03T10:23:51.852Z,88.36
2019-01-03T10:24:51.510Z,88.67
2019-01-03T10:25:52.238Z,88.49
2019-01-03T10:26:51.788Z,87.92
2019-01-03T10:27:51.419Z,87.78
2019-01-03T10:28:51.421Z,88.63
2019-01-03T10:29:51.566Z,88.12
2019-01-03T10:30:51.434Z,88.3
2019-01-03T10:31:51.647Z,88.65
2019-01-03T10:32:51.324Z,88.53
2019-01-03T10:33:51.335Z,88.82
2019-01-03T10:34:52.485Z,88.93
2019-01-03T10:35:51.655Z,88.57
2019-01-03T10:36:51.375Z,88.63
2019-01-03T10:37:51.601Z,88.81
2019-01-03T10:38:51.594Z,88.43
2019-01-03T10:39:51.525Z,88.49
2019-01-03T10:40:51.474Z,88.6
2019-01-03T10:41:51.951Z,88.45
2019-01-03T10:42:51.295Z,88.38
2019-01-03T10:43:51.576Z,88.84
2019-01-03T10:44:51.618Z,88.88
2019-01-03T10:45:52.130Z,88.25
2019-01-03T10:46:51.466Z,88.39
2019-01-03T10:47:51.639Z,88.08
2019-01-03T10:48:51.348Z,88.38
2019-01-03T10:49:51.539Z,88.37
2019-01-03T10:50:51.270Z,88.52
2019-01-03T10:51:51.678Z,88.44
2019-01-03T10:52:52.123Z,88.62
2019-01-03T10:53:51.347Z,88.45
2019-01-03T10:54:51.640Z,88.65
2019-01-03T10:55:51.503Z,88.63
2019-01-03T10:56:51.482Z,88.74
2019-01-03T10:57:51.294Z,88.41
2019-01-03T10:58:51.937Z,87.85
2019-01-03T10:59:51.705Z,88.26
2019-01-03T11:00:51.738Z,88.9
2019-01-03T11:01:52.119Z,88.44
2019-01-03T11:02:51.858Z,88.12
2019-01-03T11:03:51.907Z,88.42
2019-01-03T11:04:51.330Z,88.26
2019-01-03T11:05:51.570Z,88.76
2019-01-03T11:06:51.476Z,88.45
2019-01-03T11:07:51.352Z,88.34
2019-01-03T11:08:51.498Z,88.61
2019-01-03T11:09:51.561Z,88.03
2019-01-03T11:10:51.849Z,87.75
2019-01-03T11:11:51.634Z,87.95
2019-01-03T11:12:51.519Z,87.85
2019-01-03T11:13:51.631Z,88.03
2019-01-03T11:14:51.840Z,88.25
2019-01-03T11:15:51.594Z,88.8
2019-01-03T11:16:51.557Z,88.41
2019-01-03T11:17:51.600Z,88.2
2019-01-03T11:18:51.398Z,88.53
2019-01-03T11:19:51.571Z,88.26
2019-01-03T11:20:51.406Z,88.14
2019-01-03T11:21:51.554Z,88.46
2019-01-03T11:22:51.560Z,88.33
2019-01-03T11:23:51.510Z,88.22
2019-01-03T11:24:51.268Z,88.04
2019-01-03T11:25:51.510Z,88.45
2019-01-03T11:26:51.222Z,88.41
2019-01-03T11:27:51.377Z,88.4
2019-01-03T11:28:51.603Z,88.2
2019-01-03T11:29:51.376Z,88.14
2019-01-03T11:30:51.509Z,88.5
2019-01-03T11:31:52.102Z,88.75
2019-01-03T11:32:51.440Z,88.61
2019-01-03T11:33:51.358Z,88.24
2019-01-03T11:34:51.482Z,88.7
2019-01-03T11:35:51.345Z,88.15
2019-01-03T11:36:51.674Z,87.81
2019-01-03T11:37:51.454Z,88.49
2019-01-03T11:38:51.534Z,88.41
2019-01-03T11:39:51.235Z,88.31
2019-01-03T11:40:51.900Z,88.23
2019-01-03T11:41:51.829Z,88.63
2019-01-03T11:42:51.348Z,88.83
2019-01-03T11:43:51.585Z,88.97
2019-01-03T11:44:51.488Z,89.07
2019-01-03T11:45:51.624Z,88.86
2019-01-03T11:46:51.277Z,88.98
2019-01-03T11:47:51.531Z,89.05
2019-01-03T11:48:51.364Z,89.04
2019-01-03T11:49:51.212Z,88.96
2019-01-03T11:50:51.398Z,89.18
2019-01-03T11:51:51.309Z,89.18
2019-01-03T11:52:51.328Z,89.22
2019-01-03T11:53:51.275Z,89.08
2019-01-03T11:54:51.228Z,89.52
2019-01-03T11:55:52.011Z,89.29
2019-01-03T11:56:51.266Z,88.96
2019-01-03T11:57:51.351Z,89.07
2019-01-03T11:58:51.414Z,89.45
2019-01-03T11:59:51.388Z,89.61
2019-01-03T12:00:51.685Z,89.43
2019-01-03T12:01:51.231Z,90.18
2019-01-03T12:02:51.219Z,89.72
2019-01-03T12:03:51.268Z,90.22
2019-01-03T12:04:51.409Z,89.74
2019-01-03T12:05:51.230Z,90.38
2019-01-03T12:06:51.209Z,89.83
2019-01-03T12:07:51.299Z,90.01
2019-01-03T12:08:51.344Z,90.02
2019-01-03T12:09:51.856Z,90.06
2019-01-03T12:10:51.459Z,89.99
2019-01-03T12:11:51.323Z,90.32
2019-01-03T12:12:51.993Z,90.59
2019-01-03T12:13:52.171Z,91.5
2019-01-03T12:14:51.629Z,91.34
2019-01-03T12:15:51.529Z,90.95
2019-01-03T12:16:51.428Z,90.65
2019-01-03T12:17:51.987Z,90.45
2019-01-03T12:18:52.546Z,90.37
2019-01-03T12:19:51.437Z,90.03
2019-01-03T12:20:51.456Z,91.12
2019-01-03T12:21:51.346Z,90.64
2019-01-03T12:22:51.267Z,91.08
2019-01-03T12:23:51.163Z,91.18
2019-01-03T12:24:51.634Z,91.22
2019-01-03T12:25:51.428Z,91.6
2019-01-03T12:26:51.869Z,91.61
2019-01-03T12:27:53.798Z,91.47
2019-01-03T12:28:52.994Z,91.39
2019-01-03T12:29:51.455Z,91.24
2019-01-03T12:30:51.751Z,91.54
2019-01-03T12:31:51.321Z,91.09
2019-01-03T12:32:51.238Z,91.79
2019-01-03T12:33:52.017Z,91.44
2019-01-03T12:34:51.183Z,91.65
2019-01-03T12:35:51.274Z,91.37
2019-01-03T12:36:51.150Z,91.38
2019-01-03T12:37:51.495Z,91.59
2019-01-03T12:38:51.648Z,91.64
2019-01-03T12:39:51.581Z,91.08
2019-01-03T12:40:51.273Z,91.86
2019-01-03T12:41:51.371Z,91.73
2019-01-03T12:42:51.182Z,91.42
2019-01-03T12:43:51.664Z,91.28
2019-01-03T12:44:51.432Z,92.13
2019-01-03T12:45:51.258Z,91.5
2019-01-03T12:46:51.242Z,91.64
2019-01-03T12:47:51.175Z,91.05
2019-01-03T12:48:51.422Z,91.55
2019-01-03T12:49:51.363Z,92.04
2019-01-03T12:50:51.146Z,91.95
2019-01-03T12:51:51.589Z,91.89
2019-01-03T12:52:52.008Z,91.77
2019-01-03T12:53:51.345Z,91.48
2019-01-03T12:54:51.292Z,91.87
2019-01-03T12:55:51.265Z,92.11
2019-01-03T12:56:51.493Z,91.67